首页
METAR-TAF:

METAR-TAF

机场 :

索菲亞機場

索菲亞, 保加利亚

纬度: 42-39N, 经度: 023-23E, 海拔: 586米

当前天气观测

该预报发布于15分钟前的08:30 UTC
风速5节,风向东转东南,在东北之间变化
温度 31°C
湿度 43%
气压 1013 hPa
能见度10公里或以上
1500米以下无云,无积雨云

METAR: LBSF 200830Z 11005KT 040V190 CAVOK 31/17 Q1013 NOSIG

时间: 11:45 (08:45 UTC)

预报

该预报发布于3小时和45分钟前的05:00 UTC
预报有效从20日的 06点(UTC)到 21日的 06点(UTC)
风速4节,风向多变
能见度10公里或以上
散云层高于6000英尺
成为
从 20日的 08点(UTC)到 20日的 10点(UTC)
风速10节,风向东转东南
几率 40% :
短暂存在
从 20日的 14点(UTC)到 20日的 18点(UTC)
能見度: 5000
少量云层高于4000英尺, 积雨云.
多云层高于6000英尺
雷暴, 雨
短暂存在
从 20日的 21点(UTC)到 21日的 02点(UTC)
能見度: 4000
散云层高于3000英尺, 积雨云.
多云层高于5000英尺
阵雨
成为
从 21日的 02点(UTC)到 21日的 04点(UTC)
风速4节,风向多变

TAF: LBSF 200500Z 2006/2106 VRB04KT 9999 SCT060 BECMG 2008/2010 12010KT PROB40 TEMPO 2014/2018 5000 TSRA FEW040CB BKN060 TEMPO 2021/2102 4000 SHRA SCT030CB BKN050 BECMG 2102/2104 VRB04KT

超过4000个机场的气象观测和天气预报(METAR&TAF报告)。

可查询的气象台以黄色和红色小点在地图上表示。

将鼠标移到小点上方,可查看气象台名称。

然后点击查看天气观测和预报。

如需切换地图:点击带黑十字的绿色按钮放大地图;点击带横线的绿色按钮缩小地图;或者点击绿色箭头查看邻近地区的地图。


METAR-TAF: